sensor_id;sensor_type;location;lat;lon;timestamp;pressure;altitude;pressure_sealevel;temperature;humidity
6389;BME280;3227;42.654;23.360;2023-04-06T00:01:27;94148.81;;;2.75;67.74
6389;BME280;3227;42.654;23.360;2023-04-06T00:03:54;94146.16;;;2.69;68.02
6389;BME280;3227;42.654;23.360;2023-04-06T00:06:20;94153.31;;;2.88;67.93
6389;BME280;3227;42.654;23.360;2023-04-06T00:08:47;94142.16;;;2.79;67.47
6389;BME280;3227;42.654;23.360;2023-04-06T00:11:14;94141.91;;;2.68;67.08
6389;BME280;3227;42.654;23.360;2023-04-06T00:13:42;94140.25;;;2.68;68.17
6389;BME280;3227;42.654;23.360;2023-04-06T00:16:10;94137.16;;;2.82;67.41
6389;BME280;3227;42.654;23.360;2023-04-06T00:18:37;94134.13;;;2.96;69.54
6389;BME280;3227;42.654;23.360;2023-04-06T00:21:04;94141.91;;;3.05;68.74
6389;BME280;3227;42.654;23.360;2023-04-06T00:23:31;94134.47;;;3.12;66.66
6389;BME280;3227;42.654;23.360;2023-04-06T00:25:58;94114.78;;;3.00;66.82
6389;BME280;3227;42.654;23.360;2023-04-06T00:28:25;94130.31;;;3.15;66.27
6389;BME280;3227;42.654;23.360;2023-04-06T00:30:52;94128.53;;;3.11;66.35
6389;BME280;3227;42.654;23.360;2023-04-06T00:33:22;94131.00;;;3.08;66.88
6389;BME280;3227;42.654;23.360;2023-04-06T00:35:50;94067.19;;;2.45;65.92
6389;BME280;3227;42.654;23.360;2023-04-06T00:38:17;94124.56;;;2.83;66.70
6389;BME280;3227;42.654;23.360;2023-04-06T00:40:44;94126.38;;;2.90;67.73
6389;BME280;3227;42.654;23.360;2023-04-06T00:43:11;94124.03;;;2.98;67.10
6389;BME280;3227;42.654;23.360;2023-04-06T00:45:39;94104.59;;;2.95;67.12
6389;BME280;3227;42.654;23.360;2023-04-06T00:48:06;94091.25;;;3.02;67.45
6389;BME280;3227;42.654;23.360;2023-04-06T00:50:35;94116.16;;;3.25;66.91
6389;BME280;3227;42.654;23.360;2023-04-06T00:53:01;94102.56;;;3.21;65.92
6389;BME280;3227;42.654;23.360;2023-04-06T00:55:28;94118.66;;;3.23;65.56
6389;BME280;3227;42.654;23.360;2023-04-06T00:57:57;94113.47;;;3.17;65.55
6389;BME280;3227;42.654;23.360;2023-04-06T01:00:25;94111.03;;;3.22;65.60
6389;BME280;3227;42.654;23.360;2023-04-06T01:02:52;94059.09;;;2.98;65.92
6389;BME280;3227;42.654;23.360;2023-04-06T01:05:19;94124.88;;;3.39;65.60
6389;BME280;3227;42.654;23.360;2023-04-06T01:07:47;94122.09;;;3.25;65.86
6389;BME280;3227;42.654;23.360;2023-04-06T01:10:23;94120.28;;;3.21;65.83
6389;BME280;3227;42.654;23.360;2023-04-06T01:12:50;94083.44;;;2.93;66.14
6389;BME280;3227;42.654;23.360;2023-04-06T01:15:17;94100.53;;;3.05;65.81
6389;BME280;3227;42.654;23.360;2023-04-06T01:17:44;94109.84;;;3.04;66.42
6389;BME280;3227;42.654;23.360;2023-04-06T01:20:11;94109.50;;;2.89;66.73
6389;BME280;3227;42.654;23.360;2023-04-06T01:22:39;94101.25;;;2.96;67.56
6389;BME280;3227;42.654;23.360;2023-04-06T01:25:07;94098.94;;;3.09;66.50
6389;BME280;3227;42.654;23.360;2023-04-06T01:27:34;94095.00;;;3.23;66.01
6389;BME280;3227;42.654;23.360;2023-04-06T01:30:02;94101.84;;;3.25;66.77
6389;BME280;3227;42.654;23.360;2023-04-06T01:32:28;94098.94;;;3.09;66.08
6389;BME280;3227;42.654;23.360;2023-04-06T01:34:55;94087.91;;;3.05;66.23
6389;BME280;3227;42.654;23.360;2023-04-06T01:37:22;94092.38;;;3.17;67.42
6389;BME280;3227;42.654;23.360;2023-04-06T01:39:51;94089.72;;;3.11;66.42
6389;BME280;3227;42.654;23.360;2023-04-06T01:42:18;94092.28;;;3.12;66.64
6389;BME280;3227;42.654;23.360;2023-04-06T01:44:45;94092.19;;;3.08;67.51
6389;BME280;3227;42.654;23.360;2023-04-06T01:47:12;94085.50;;;3.11;67.61
6389;BME280;3227;42.654;23.360;2023-04-06T01:49:39;94079.81;;;3.23;66.98
6389;BME280;3227;42.654;23.360;2023-04-06T01:52:05;94084.03;;;3.21;67.27
6389;BME280;3227;42.654;23.360;2023-04-06T01:54:32;94080.69;;;3.23;67.55
6389;BME280;3227;42.654;23.360;2023-04-06T01:57:01;94089.84;;;3.17;66.32
6389;BME280;3227;42.654;23.360;2023-04-06T01:59:27;94079.44;;;3.03;66.36
6389;BME280;3227;42.654;23.360;2023-04-06T02:01:54;94081.84;;;2.98;66.86
6389;BME280;3227;42.654;23.360;2023-04-06T02:04:21;94075.91;;;2.95;66.68
6389;BME280;3227;42.654;23.360;2023-04-06T02:06:48;94074.34;;;3.01;67.07
6389;BME280;3227;42.654;23.360;2023-04-06T02:09:15;94077.88;;;3.10;67.25
6389;BME280;3227;42.654;23.360;2023-04-06T02:11:42;94068.66;;;3.12;66.47
6389;BME280;3227;42.654;23.360;2023-04-06T02:14:10;94073.53;;;3.02;67.74
6389;BME280;3227;42.654;23.360;2023-04-06T02:16:37;94069.91;;;2.91;67.65
6389;BME280;3227;42.654;23.360;2023-04-06T02:19:04;94069.00;;;2.88;67.99
6389;BME280;3227;42.654;23.360;2023-04-06T02:21:31;94068.50;;;3.05;67.68
6389;BME280;3227;42.654;23.360;2023-04-06T02:23:58;94046.22;;;2.88;67.04
6389;BME280;3227;42.654;23.360;2023-04-06T02:26:25;94070.53;;;3.20;67.72
6389;BME280;3227;42.654;23.360;2023-04-06T02:28:52;94033.03;;;3.02;66.97
6389;BME280;3227;42.654;23.360;2023-04-06T02:31:20;94074.50;;;3.09;66.88
6389;BME280;3227;42.654;23.360;2023-04-06T02:33:47;94061.22;;;3.19;67.50
6389;BME280;3227;42.654;23.360;2023-04-06T02:36:13;94073.34;;;3.35;66.41
6389;BME280;3227;42.654;23.360;2023-04-06T02:38:40;94072.59;;;3.41;66.54
6389;BME280;3227;42.654;23.360;2023-04-06T02:41:07;94044.97;;;3.10;65.95
6389;BME280;3227;42.654;23.360;2023-04-06T02:43:34;94073.31;;;3.34;66.67
6389;BME280;3227;42.654;23.360;2023-04-06T02:46:01;94071.81;;;3.43;66.89
6389;BME280;3227;42.654;23.360;2023-04-06T02:48:29;94061.31;;;3.25;66.00
6389;BME280;3227;42.654;23.360;2023-04-06T02:50:56;94048.22;;;3.02;66.54
6389;BME280;3227;42.654;23.360;2023-04-06T02:53:23;94069.56;;;3.15;66.81
6389;BME280;3227;42.654;23.360;2023-04-06T02:55:50;94052.19;;;2.91;67.35
6389;BME280;3227;42.654;23.360;2023-04-06T02:58:17;94069.59;;;3.17;66.93
6389;BME280;3227;42.654;23.360;2023-04-06T03:00:43;94071.38;;;3.21;66.98
6389;BME280;3227;42.654;23.360;2023-04-06T03:03:10;94061.91;;;3.14;67.86
6389;BME280;3227;42.654;23.360;2023-04-06T03:05:39;94065.13;;;3.03;67.13
6389;BME280;3227;42.654;23.360;2023-04-06T03:08:05;94063.41;;;3.02;66.80
6389;BME280;3227;42.654;23.360;2023-04-06T03:10:32;94066.81;;;3.04;67.22
6389;BME280;3227;42.654;23.360;2023-04-06T03:12:59;94063.44;;;3.05;67.95
6389;BME280;3227;42.654;23.360;2023-04-06T03:15:26;94043.16;;;3.02;67.91
6389;BME280;3227;42.654;23.360;2023-04-06T03:17:53;94067.31;;;3.29;67.40
6389;BME280;3227;42.654;23.360;2023-04-06T03:20:20;94003.22;;;2.88;67.08
6389;BME280;3227;42.654;23.360;2023-04-06T03:22:48;94052.13;;;3.29;66.69
6389;BME280;3227;42.654;23.360;2023-04-06T03:25:15;94064.78;;;3.29;66.13
6389;BME280;3227;42.654;23.360;2023-04-06T03:27:42;94059.69;;;3.27;67.33
6389;BME280;3227;42.654;23.360;2023-04-06T03:30:09;94041.66;;;3.14;66.71
6389;BME280;3227;42.654;23.360;2023-04-06T03:32:36;94060.34;;;3.19;66.66
6389;BME280;3227;42.654;23.360;2023-04-06T03:35:06;94054.19;;;3.06;66.61
6389;BME280;3227;42.654;23.360;2023-04-06T03:37:33;94053.66;;;3.21;67.09
6389;BME280;3227;42.654;23.360;2023-04-06T03:40:02;94064.81;;;3.32;67.12
6389;BME280;3227;42.654;23.360;2023-04-06T03:42:29;94058.47;;;3.52;66.47
6389;BME280;3227;42.654;23.360;2023-04-06T03:44:58;94056.69;;;3.48;66.10
6389;BME280;3227;42.654;23.360;2023-04-06T03:47:25;94059.94;;;3.41;66.18
6389;BME280;3227;42.654;23.360;2023-04-06T03:49:52;94016.22;;;3.04;66.06
6389;BME280;3227;42.654;23.360;2023-04-06T03:52:19;94049.56;;;3.27;66.46
6389;BME280;3227;42.654;23.360;2023-04-06T03:54:48;94060.41;;;3.22;66.61
6389;BME280;3227;42.654;23.360;2023-04-06T03:57:16;94053.47;;;3.12;66.34
6389;BME280;3227;42.654;23.360;2023-04-06T03:59:43;94051.69;;;3.08;66.99
6389;BME280;3227;42.654;23.360;2023-04-06T04:02:10;93921.25;;;2.38;67.36
6389;BME280;3227;42.654;23.360;2023-04-06T04:04:37;94058.53;;;3.12;66.60
6389;BME280;3227;42.654;23.360;2023-04-06T04:07:04;94059.91;;;2.97;67.00
6389;BME280;3227;42.654;23.360;2023-04-06T04:09:31;94051.63;;;3.04;68.32
6389;BME280;3227;42.654;23.360;2023-04-06T04:11:58;94059.59;;;2.82;67.45
6389;BME280;3227;42.654;23.360;2023-04-06T04:14:26;94056.06;;;2.76;67.20
6389;BME280;3227;42.654;23.360;2023-04-06T04:16:53;94040.38;;;2.51;67.50
6389;BME280;3227;42.654;23.360;2023-04-06T04:19:20;94049.84;;;2.60;68.34
6389;BME280;3227;42.654;23.360;2023-04-06T04:21:47;94053.44;;;2.70;68.51
6389;BME280;3227;42.654;23.360;2023-04-06T04:24:14;94058.66;;;2.77;68.10
6389;BME280;3227;42.654;23.360;2023-04-06T04:26:41;94060.78;;;2.99;67.78
6389;BME280;3227;42.654;23.360;2023-04-06T04:29:08;94065.06;;;3.02;66.68
6389;BME280;3227;42.654;23.360;2023-04-06T04:31:36;94061.75;;;3.04;67.73
6389;BME280;3227;42.654;23.360;2023-04-06T04:34:03;94058.59;;;3.16;66.74
6389;BME280;3227;42.654;23.360;2023-04-06T04:36:32;94053.41;;;3.09;67.68
6389;BME280;3227;42.654;23.360;2023-04-06T04:38:59;94055.78;;;3.01;67.70
6389;BME280;3227;42.654;23.360;2023-04-06T04:41:26;94054.28;;;3.11;67.51
6389;BME280;3227;42.654;23.360;2023-04-06T04:43:53;94058.72;;;3.22;67.37
6389;BME280;3227;42.654;23.360;2023-04-06T04:46:20;94059.56;;;3.23;67.07
6389;BME280;3227;42.654;23.360;2023-04-06T04:48:48;94060.72;;;3.37;66.32
6389;BME280;3227;42.654;23.360;2023-04-06T04:51:15;94051.38;;;3.34;66.98
6389;BME280;3227;42.654;23.360;2023-04-06T04:53:42;94052.34;;;3.41;66.03
6389;BME280;3227;42.654;23.360;2023-04-06T04:56:09;94054.78;;;3.35;66.63
6389;BME280;3227;42.654;23.360;2023-04-06T04:58:36;94038.75;;;3.36;66.91
6389;BME280;3227;42.654;23.360;2023-04-06T05:01:03;94061.19;;;3.61;65.30
6389;BME280;3227;42.654;23.360;2023-04-06T05:03:30;94063.75;;;3.64;65.01
6389;BME280;3227;42.654;23.360;2023-04-06T05:05:58;93937.50;;;2.92;65.89
6389;BME280;3227;42.654;23.360;2023-04-06T05:08:25;94042.06;;;3.80;64.43
6389;BME280;3227;42.654;23.360;2023-04-06T05:10:52;94052.28;;;3.83;63.84
6389;BME280;3227;42.654;23.360;2023-04-06T05:13:19;94059.22;;;3.93;64.09
6389;BME280;3227;42.654;23.360;2023-04-06T05:15:46;94066.03;;;3.97;64.10
6389;BME280;3227;42.654;23.360;2023-04-06T05:18:18;94061.88;;;4.01;63.71
6389;BME280;3227;42.654;23.360;2023-04-06T05:20:45;94062.34;;;3.80;63.86
6389;BME280;3227;42.654;23.360;2023-04-06T05:23:13;94061.63;;;3.86;64.80
6389;BME280;3227;42.654;23.360;2023-04-06T05:25:40;94060.63;;;3.79;64.81
6389;BME280;3227;42.654;23.360;2023-04-06T05:28:07;94071.78;;;3.89;64.74
6389;BME280;3227;42.654;23.360;2023-04-06T05:30:34;94079.63;;;4.01;64.74
6389;BME280;3227;42.654;23.360;2023-04-06T05:33:01;94067.97;;;4.10;63.98
6389;BME280;3227;42.654;23.360;2023-04-06T05:35:28;94065.31;;;4.03;66.69
6389;BME280;3227;42.654;23.360;2023-04-06T05:37:56;94068.03;;;4.15;66.01
6389;BME280;3227;42.654;23.360;2023-04-06T05:40:24;94072.50;;;4.31;65.40
6389;BME280;3227;42.654;23.360;2023-04-06T05:42:51;94039.31;;;4.16;65.09
6389;BME280;3227;42.654;23.360;2023-04-06T05:45:19;94073.31;;;4.27;64.48
6389;BME280;3227;42.654;23.360;2023-04-06T05:47:46;94058.72;;;4.15;64.93
6389;BME280;3227;42.654;23.360;2023-04-06T05:50:14;94047.41;;;3.94;65.02
6389;BME280;3227;42.654;23.360;2023-04-06T05:52:41;94049.75;;;3.83;65.16
6389;BME280;3227;42.654;23.360;2023-04-06T05:55:11;94057.53;;;3.94;66.68
6389;BME280;3227;42.654;23.360;2023-04-06T05:57:39;94054.47;;;4.13;66.90
6389;BME280;3227;42.654;23.360;2023-04-06T06:00:07;94053.03;;;4.29;65.99
6389;BME280;3227;42.654;23.360;2023-04-06T06:02:35;94058.28;;;4.41;65.15
6389;BME280;3227;42.654;23.360;2023-04-06T06:05:02;94058.22;;;4.35;65.74
6389;BME280;3227;42.654;23.360;2023-04-06T06:07:29;94053.09;;;4.33;65.56
6389;BME280;3227;42.654;23.360;2023-04-06T06:09:56;94050.84;;;4.51;66.11
6389;BME280;3227;42.654;23.360;2023-04-06T06:12:23;94053.38;;;4.50;65.21
6389;BME280;3227;42.654;23.360;2023-04-06T06:14:52;94057.81;;;4.65;65.97
6389;BME280;3227;42.654;23.360;2023-04-06T06:17:19;94056.44;;;4.88;66.08
6389;BME280;3227;42.654;23.360;2023-04-06T06:19:46;94060.56;;;4.80;64.21
6389;BME280;3227;42.654;23.360;2023-04-06T06:22:12;94058.06;;;4.83;64.84
6389;BME280;3227;42.654;23.360;2023-04-06T06:24:39;94051.44;;;4.92;64.33
6389;BME280;3227;42.654;23.360;2023-04-06T06:27:06;94030.94;;;4.77;64.30
6389;BME280;3227;42.654;23.360;2023-04-06T06:29:34;94064.13;;;4.92;64.57
6389;BME280;3227;42.654;23.360;2023-04-06T06:32:02;94060.25;;;5.20;64.80
6389;BME280;3227;42.654;23.360;2023-04-06T06:34:29;94058.81;;;5.41;63.66
6389;BME280;3227;42.654;23.360;2023-04-06T06:36:56;94056.19;;;5.33;63.44
6389;BME280;3227;42.654;23.360;2023-04-06T06:39:28;94049.88;;;5.74;64.23
6389;BME280;3227;42.654;23.360;2023-04-06T06:41:55;94045.38;;;6.37;62.53
6389;BME280;3227;42.654;23.360;2023-04-06T06:44:22;94049.16;;;6.92;60.13
6389;BME280;3227;42.654;23.360;2023-04-06T06:46:49;94048.47;;;7.25;60.97
6389;BME280;3227;42.654;23.360;2023-04-06T06:49:17;94053.78;;;7.78;57.26
6389;BME280;3227;42.654;23.360;2023-04-06T06:51:44;94058.94;;;7.95;55.09
6389;BME280;3227;42.654;23.360;2023-04-06T06:54:12;94062.34;;;7.97;55.26
6389;BME280;3227;42.654;23.360;2023-04-06T06:56:38;94052.16;;;8.24;55.15
6389;BME280;3227;42.654;23.360;2023-04-06T06:59:05;93990.88;;;7.85;54.74
6389;BME280;3227;42.654;23.360;2023-04-06T07:01:33;94053.88;;;8.21;54.09
6389;BME280;3227;42.654;23.360;2023-04-06T07:04:00;94058.16;;;8.32;54.24
6389;BME280;3227;42.654;23.360;2023-04-06T07:06:28;94054.69;;;8.06;52.73
6389;BME280;3227;42.654;23.360;2023-04-06T07:08:55;94053.69;;;7.58;53.13
6389;BME280;3227;42.654;23.360;2023-04-06T07:11:22;94049.47;;;7.56;55.69
6389;BME280;3227;42.654;23.360;2023-04-06T07:13:49;94035.00;;;7.49;54.40
6389;BME280;3227;42.654;23.360;2023-04-06T07:16:16;94039.19;;;7.42;55.39
6389;BME280;3227;42.654;23.360;2023-04-06T07:18:42;94045.28;;;7.72;54.59
6389;BME280;3227;42.654;23.360;2023-04-06T07:21:09;94045.31;;;7.90;55.39
6389;BME280;3227;42.654;23.360;2023-04-06T07:23:38;94044.47;;;7.94;52.97
6389;BME280;3227;42.654;23.360;2023-04-06T07:26:05;94037.66;;;7.87;52.90
6389;BME280;3227;42.654;23.360;2023-04-06T07:28:32;94043.63;;;7.89;54.27
6389;BME280;3227;42.654;23.360;2023-04-06T07:30:59;94038.47;;;7.71;53.54
6389;BME280;3227;42.654;23.360;2023-04-06T07:33:26;94043.53;;;7.66;53.91
6389;BME280;3227;42.654;23.360;2023-04-06T07:35:55;94042.72;;;7.73;55.83
6389;BME280;3227;42.654;23.360;2023-04-06T07:38:23;94055.31;;;7.34;54.50
6389;BME280;3227;42.654;23.360;2023-04-06T07:40:52;94033.91;;;7.01;55.58
6389;BME280;3227;42.654;23.360;2023-04-06T07:43:19;94053.41;;;6.95;55.77
6389;BME280;3227;42.654;23.360;2023-04-06T07:45:45;94056.69;;;6.72;55.51
6389;BME280;3227;42.654;23.360;2023-04-06T07:48:12;94048.88;;;6.48;58.32
6389;BME280;3227;42.654;23.360;2023-04-06T07:50:39;94039.88;;;6.99;57.14
6389;BME280;3227;42.654;23.360;2023-04-06T07:53:07;94045.09;;;7.24;55.66
6389;BME280;3227;42.654;23.360;2023-04-06T07:55:36;94046.06;;;7.54;55.65
6389;BME280;3227;42.654;23.360;2023-04-06T07:58:05;94045.22;;;7.61;54.77
6389;BME280;3227;42.654;23.360;2023-04-06T08:00:32;94043.59;;;7.74;55.75
6389;BME280;3227;42.654;23.360;2023-04-06T08:02:59;94042.75;;;7.81;54.31
6389;BME280;3227;42.654;23.360;2023-04-06T08:05:26;94024.03;;;7.86;55.01
6389;BME280;3227;42.654;23.360;2023-04-06T08:07:53;94041.13;;;8.22;54.20
6389;BME280;3227;42.654;23.360;2023-04-06T08:10:19;94029.19;;;8.05;53.01
6389;BME280;3227;42.654;23.360;2023-04-06T08:12:46;94030.84;;;7.93;54.20
6389;BME280;3227;42.654;23.360;2023-04-06T08:15:15;94039.31;;;7.77;54.02
6389;BME280;3227;42.654;23.360;2023-04-06T08:17:43;94037.59;;;7.66;54.45
6389;BME280;3227;42.654;23.360;2023-04-06T08:20:10;94028.22;;;7.58;54.35
6389;BME280;3227;42.654;23.360;2023-04-06T08:22:37;94040.22;;;7.90;54.61
6389;BME280;3227;42.654;23.360;2023-04-06T08:25:05;94034.25;;;7.92;54.74
6389;BME280;3227;42.654;23.360;2023-04-06T08:27:32;94048.75;;;8.16;54.29
6389;BME280;3227;42.654;23.360;2023-04-06T08:29:59;94057.31;;;8.39;53.49
6389;BME280;3227;42.654;23.360;2023-04-06T08:32:27;94042.00;;;8.36;53.31
6389;BME280;3227;42.654;23.360;2023-04-06T08:34:54;94052.19;;;8.58;52.68
6389;BME280;3227;42.654;23.360;2023-04-06T08:37:21;94029.22;;;8.41;51.01
6389;BME280;3227;42.654;23.360;2023-04-06T08:39:48;94047.09;;;8.50;51.01
6389;BME280;3227;42.654;23.360;2023-04-06T08:42:19;94035.19;;;8.54;52.00
6389;BME280;3227;42.654;23.360;2023-04-06T08:44:47;94016.47;;;8.52;50.34
6389;BME280;3227;42.654;23.360;2023-04-06T08:47:15;94045.34;;;8.26;49.15
6389;BME280;3227;42.654;23.360;2023-04-06T08:49:44;94049.66;;;8.38;50.85
6389;BME280;3227;42.654;23.360;2023-04-06T08:52:11;94032.66;;;8.46;50.20
6389;BME280;3227;42.654;23.360;2023-04-06T08:54:38;94047.09;;;8.58;49.34
6389;BME280;3227;42.654;23.360;2023-04-06T08:57:05;94041.16;;;8.48;48.58
6389;BME280;3227;42.654;23.360;2023-04-06T08:59:33;94044.53;;;8.59;49.39
6389;BME280;3227;42.654;23.360;2023-04-06T09:02:03;94038.56;;;8.57;48.92
6389;BME280;3227;42.654;23.360;2023-04-06T09:04:32;94036.03;;;8.68;48.94
6389;BME280;3227;42.654;23.360;2023-04-06T09:07:00;94047.97;;;8.72;49.43
6389;BME280;3227;42.654;23.360;2023-04-06T09:09:27;94038.56;;;8.66;48.04
6389;BME280;3227;42.654;23.360;2023-04-06T09:11:55;94032.63;;;8.43;48.88
6389;BME280;3227;42.654;23.360;2023-04-06T09:14:34;94033.47;;;8.40;49.15
6389;BME280;3227;42.654;23.360;2023-04-06T09:17:02;94038.56;;;8.66;49.21
6389;BME280;3227;42.654;23.360;2023-04-06T09:19:29;94033.47;;;8.71;48.39
6389;BME280;3227;42.654;23.360;2023-04-06T09:22:03;94032.63;;;8.60;49.99
6389;BME280;3227;42.654;23.360;2023-04-06T09:24:40;94036.03;;;8.59;51.66
6389;BME280;3227;42.654;23.360;2023-04-06T09:27:07;94025.75;;;8.98;51.94
6389;BME280;3227;42.654;23.360;2023-04-06T09:29:34;94031.69;;;9.08;50.39
6389;BME280;3227;42.654;23.360;2023-04-06T09:32:03;94030.03;;;9.05;49.32
6389;BME280;3227;42.654;23.360;2023-04-06T09:34:30;94024.88;;;9.11;48.73
6389;BME280;3227;42.654;23.360;2023-04-06T09:36:57;93953.50;;;8.48;49.21
6389;BME280;3227;42.654;23.360;2023-04-06T09:39:26;94026.66;;;8.74;50.11
6389;BME280;3227;42.654;23.360;2023-04-06T09:41:53;94024.97;;;8.61;49.84
6389;BME280;3227;42.654;23.360;2023-04-06T09:44:21;94034.34;;;8.70;49.20
6389;BME280;3227;42.654;23.360;2023-04-06T09:46:49;94025.81;;;8.69;48.26
6389;BME280;3227;42.654;23.360;2023-04-06T09:49:17;94023.25;;;8.71;49.04
6389;BME280;3227;42.654;23.360;2023-04-06T09:51:46;94027.53;;;8.69;48.41
6389;BME280;3227;42.654;23.360;2023-04-06T09:54:18;94019.84;;;8.73;48.24
6389;BME280;3227;42.654;23.360;2023-04-06T09:56:50;94030.06;;;8.66;48.54
6389;BME280;3227;42.654;23.360;2023-04-06T09:59:21;94036.88;;;8.68;48.64
6389;BME280;3227;42.654;23.360;2023-04-06T10:01:53;94041.13;;;8.77;47.32
6389;BME280;3227;42.654;23.360;2023-04-06T10:04:31;94039.44;;;8.77;47.08
6389;BME280;3227;42.654;23.360;2023-04-06T10:07:02;94034.28;;;8.93;47.44
6389;BME280;3227;42.654;23.360;2023-04-06T10:09:30;94033.44;;;8.83;47.57
6389;BME280;3227;42.654;23.360;2023-04-06T10:12:04;94029.19;;;8.74;47.61
6389;BME280;3227;42.654;23.360;2023-04-06T10:14:32;94035.13;;;8.90;46.98
6389;BME280;3227;42.654;23.360;2023-04-06T10:17:01;94035.19;;;8.69;47.05
6389;BME280;3227;42.654;23.360;2023-04-06T10:19:35;94034.28;;;8.26;46.88
6389;BME280;3227;42.654;23.360;2023-04-06T10:22:08;94025.81;;;8.33;48.54
6389;BME280;3227;42.654;23.360;2023-04-06T10:24:38;94037.75;;;8.48;47.56
6389;BME280;3227;42.654;23.360;2023-04-06T10:27:07;94043.69;;;8.51;47.23
6389;BME280;3227;42.654;23.360;2023-04-06T10:29:48;94031.78;;;8.36;47.86
6389;BME280;3227;42.654;23.360;2023-04-06T10:32:16;93983.25;;;8.17;47.52
6389;BME280;3227;42.654;23.360;2023-04-06T10:34:43;94031.78;;;8.67;47.24
6389;BME280;3227;42.654;23.360;2023-04-06T10:37:12;94019.00;;;8.49;47.02
6389;BME280;3227;42.654;23.360;2023-04-06T10:39:46;94031.78;;;8.64;47.16
6389;BME280;3227;42.654;23.360;2023-04-06T10:42:14;94021.56;;;8.43;46.03
6389;BME280;3227;42.654;23.360;2023-04-06T10:44:44;94020.69;;;8.30;46.81
6389;BME280;3227;42.654;23.360;2023-04-06T10:47:18;94016.44;;;8.14;47.34
6389;BME280;3227;42.654;23.360;2023-04-06T10:49:45;94018.97;;;8.18;47.99
6389;BME280;3227;42.654;23.360;2023-04-06T10:52:12;94018.13;;;8.10;48.17
6389;BME280;3227;42.654;23.360;2023-04-06T10:54:41;94024.09;;;8.18;48.98
6389;BME280;3227;42.654;23.360;2023-04-06T10:57:09;94024.13;;;8.44;48.50
6389;BME280;3227;42.654;23.360;2023-04-06T10:59:42;94020.72;;;8.42;46.87
6389;BME280;3227;42.654;23.360;2023-04-06T11:02:09;94015.56;;;8.07;46.56
6389;BME280;3227;42.654;23.360;2023-04-06T11:04:54;94009.56;;;7.73;47.43
6389;BME280;3227;42.654;23.360;2023-04-06T11:07:23;93989.13;;;7.53;49.80
6389;BME280;3227;42.654;23.360;2023-04-06T11:09:50;94015.56;;;7.99;48.52
6389;BME280;3227;42.654;23.360;2023-04-06T11:12:21;94016.44;;;8.21;48.86
6389;BME280;3227;42.654;23.360;2023-04-06T11:14:54;94010.47;;;8.27;48.11
6389;BME280;3227;42.654;23.360;2023-04-06T11:17:26;94006.22;;;8.18;48.28
6389;BME280;3227;42.654;23.360;2023-04-06T11:19:53;94012.22;;;8.31;48.37
6389;BME280;3227;42.654;23.360;2023-04-06T11:22:20;93978.16;;;8.29;47.63
6389;BME280;3227;42.654;23.360;2023-04-06T11:24:47;93973.91;;;8.54;47.43
6389;BME280;3227;42.654;23.360;2023-04-06T11:27:15;94010.47;;;8.09;47.43
6389;BME280;3227;42.654;23.360;2023-04-06T11:29:43;94004.50;;;8.17;47.81
6389;BME280;3227;42.654;23.360;2023-04-06T11:32:20;94001.97;;;7.96;48.11
6389;BME280;3227;42.654;23.360;2023-04-06T11:34:47;93991.75;;;8.11;49.39
6389;BME280;3227;42.654;23.360;2023-04-06T11:37:14;93982.41;;;8.25;48.09
6389;BME280;3227;42.654;23.360;2023-04-06T11:39:46;93814.94;;;7.38;48.21
6389;BME280;3227;42.654;23.360;2023-04-06T11:42:21;93999.44;;;8.54;46.50
6389;BME280;3227;42.654;23.360;2023-04-06T11:44:53;93996.03;;;8.32;47.24
6389;BME280;3227;42.654;23.360;2023-04-06T11:47:28;93956.03;;;7.94;48.25
6389;BME280;3227;42.654;23.360;2023-04-06T11:50:04;93990.91;;;8.12;47.06
6389;BME280;3227;42.654;23.360;2023-04-06T11:52:33;94000.28;;;8.27;49.01
6389;BME280;3227;42.654;23.360;2023-04-06T11:55:10;93995.19;;;8.54;47.64
6389;BME280;3227;42.654;23.360;2023-04-06T11:57:38;93987.50;;;8.59;47.31
6389;BME280;3227;42.654;23.360;2023-04-06T12:00:06;93994.34;;;8.32;46.42
6389;BME280;3227;42.654;23.360;2023-04-06T12:02:35;93986.66;;;8.10;47.44
6389;BME280;3227;42.654;23.360;2023-04-06T12:05:03;93935.63;;;7.91;48.92
6389;BME280;3227;42.654;23.360;2023-04-06T12:07:30;93996.03;;;8.43;48.77
6389;BME280;3227;42.654;23.360;2023-04-06T12:10:08;93953.47;;;8.26;48.10
6389;BME280;3227;42.654;23.360;2023-04-06T12:12:35;93990.94;;;8.38;47.28
6389;BME280;3227;42.654;23.360;2023-04-06T12:15:02;93979.00;;;8.29;47.91
6389;BME280;3227;42.654;23.360;2023-04-06T12:17:30;93993.50;;;8.46;47.06
6389;BME280;3227;42.654;23.360;2023-04-06T12:19:58;93990.91;;;8.26;47.47
6389;BME280;3227;42.654;23.360;2023-04-06T12:22:25;93983.25;;;7.88;48.17
6389;BME280;3227;42.654;23.360;2023-04-06T12:24:52;93979.00;;;7.81;50.12
6389;BME280;3227;42.654;23.360;2023-04-06T12:27:19;93976.47;;;8.14;49.50
6389;BME280;3227;42.654;23.360;2023-04-06T12:29:47;93984.13;;;8.20;48.26
6389;BME280;3227;42.654;23.360;2023-04-06T12:32:13;93978.97;;;7.93;48.59
6389;BME280;3227;42.654;23.360;2023-04-06T12:34:44;93983.25;;;7.82;49.42
6389;BME280;3227;42.654;23.360;2023-04-06T12:37:12;93978.97;;;7.99;50.42
6389;BME280;3227;42.654;23.360;2023-04-06T12:39:39;93977.28;;;8.16;49.37
6389;BME280;3227;42.654;23.360;2023-04-06T12:42:06;93979.00;;;8.17;48.28
6389;BME280;3227;42.654;23.360;2023-04-06T12:44:34;93944.97;;;8.03;47.80
6389;BME280;3227;42.654;23.360;2023-04-06T12:47:04;93967.09;;;8.16;48.24
6389;BME280;3227;42.654;23.360;2023-04-06T12:49:32;93977.31;;;8.22;48.73
6389;BME280;3227;42.654;23.360;2023-04-06T12:51:59;93967.13;;;8.31;48.26
6389;BME280;3227;42.654;23.360;2023-04-06T12:54:28;93958.59;;;8.45;48.20
6389;BME280;3227;42.654;23.360;2023-04-06T12:56:55;93928.81;;;8.16;48.35
6389;BME280;3227;42.654;23.360;2023-04-06T12:59:23;93963.69;;;8.20;47.14
6389;BME280;3227;42.654;23.360;2023-04-06T13:01:50;93962.00;;;8.34;48.66
6389;BME280;3227;42.654;23.360;2023-04-06T13:04:17;93959.44;;;8.40;47.06
6389;BME280;3227;42.654;23.360;2023-04-06T13:06:44;93956.91;;;8.22;48.25
6389;BME280;3227;42.654;23.360;2023-04-06T13:09:11;93956.88;;;8.01;47.67
6389;BME280;3227;42.654;23.360;2023-04-06T13:11:39;93955.16;;;7.76;48.21
6389;BME280;3227;42.654;23.360;2023-04-06T13:14:06;93954.31;;;7.72;49.01
6389;BME280;3227;42.654;23.360;2023-04-06T13:16:33;93955.19;;;7.73;49.05
6389;BME280;3227;42.654;23.360;2023-04-06T13:19:01;93950.09;;;7.88;48.74
6389;BME280;3227;42.654;23.360;2023-04-06T13:21:28;93950.94;;;7.94;49.08
6389;BME280;3227;42.654;23.360;2023-04-06T13:23:55;93938.19;;;8.10;48.71
6389;BME280;3227;42.654;23.360;2023-04-06T13:26:22;93942.44;;;8.06;48.04